createdAt,value
2022-08-23T00:00:24.405Z,78.11
2022-08-23T00:01:19.589Z,78.27
2022-08-23T00:02:23.466Z,78.24
2022-08-23T00:03:10.949Z,78.21
2022-08-23T00:04:04.901Z,78.16
2022-08-23T00:05:09.357Z,78.07
2022-08-23T00:05:56.029Z,78.18
2022-08-23T00:06:50.110Z,78.13
2022-08-23T00:07:45.576Z,78.16
2022-08-23T00:08:40.610Z,78.18
2022-08-23T00:09:36.808Z,78.26
2022-08-23T00:10:31.047Z,78.04
2022-08-23T00:11:26.350Z,78.07
2022-08-23T00:12:21.622Z,78.10
2022-08-23T00:13:18.070Z,78.31
2022-08-23T00:14:13.209Z,78.77
2022-08-23T00:15:08.837Z,78.81
2022-08-23T00:16:07.854Z,78.67
2022-08-23T00:17:03.025Z,78.48
2022-08-23T00:17:58.510Z,78.63
2022-08-23T00:18:53.498Z,78.64
2022-08-23T00:19:48.507Z,78.66
2022-08-23T00:20:43.518Z,78.89
2022-08-23T00:21:38.545Z,78.91
2022-08-23T00:22:33.573Z,78.84
2022-08-23T00:23:28.595Z,78.81
2022-08-23T00:24:23.774Z,78.81
2022-08-23T00:25:18.823Z,78.79
2022-08-23T00:26:13.858Z,78.74
2022-08-23T00:27:08.874Z,79.07
2022-08-23T00:28:05.163Z,79.19
2022-08-23T00:29:01.196Z,79.35
2022-08-23T00:29:55.279Z,79.51
2022-08-23T00:30:50.304Z,79.53
2022-08-23T00:31:46.273Z,79.71
2022-08-23T00:32:41.565Z,79.63
2022-08-23T00:33:36.721Z,79.54
2022-08-23T00:34:32.000Z,79.39
2022-08-23T00:35:27.883Z,79.42
2022-08-23T00:36:23.023Z,79.42
2022-08-23T00:37:18.302Z,79.45
2022-08-23T00:38:34.079Z,79.37
2022-08-23T00:39:09.740Z,79.31
2022-08-23T00:40:04.013Z,79.22
2022-08-23T00:40:59.128Z,79.11
2022-08-23T00:41:54.455Z,79.02
2022-08-23T00:42:49.755Z,78.93
2022-08-23T00:43:44.900Z,78.91
2022-08-23T00:44:40.210Z,79.13
2022-08-23T00:45:35.244Z,79.52
2022-08-23T00:46:30.257Z,79.77
2022-08-23T00:47:25.288Z,79.82
2022-08-23T00:48:20.365Z,79.74
2022-08-23T00:49:15.487Z,79.77
2022-08-23T00:50:19.349Z,79.58
2022-08-23T00:51:06.718Z,79.86
2022-08-23T00:52:00.856Z,79.71
2022-08-23T00:52:55.875Z,79.49
2022-08-23T00:53:50.871Z,79.57
2022-08-23T00:54:45.937Z,79.52
2022-08-23T00:55:40.922Z,79.57
2022-08-23T00:56:35.947Z,79.56
2022-08-23T00:57:30.991Z,79.68
2022-08-23T00:58:26.012Z,79.90
2022-08-23T00:59:21.033Z,79.90
2022-08-23T01:00:16.068Z,80.00
2022-08-23T01:01:11.072Z,79.94
2022-08-23T01:02:06.184Z,79.83
2022-08-23T01:03:01.147Z,79.77
2022-08-23T01:04:03.048Z,79.86
2022-08-23T01:04:52.571Z,79.93
2022-08-23T01:05:46.781Z,79.86
2022-08-23T01:06:41.988Z,79.75
2022-08-23T01:07:37.874Z,79.88
2022-08-23T01:08:32.921Z,79.81
2022-08-23T01:09:28.902Z,79.78
2022-08-23T01:10:24.061Z,79.90
2022-08-23T01:11:19.238Z,80.14
2022-08-23T01:12:14.973Z,80.27
2022-08-23T01:13:10.279Z,80.34
2022-08-23T01:14:05.691Z,80.36
2022-08-23T01:15:01.834Z,80.59
2022-08-23T01:15:57.139Z,80.80
2022-08-23T01:16:53.037Z,80.91
2022-08-23T01:17:48.176Z,81.09
2022-08-23T01:18:43.598Z,81.25
2022-08-23T01:19:39.356Z,81.25
2022-08-23T01:20:34.622Z,81.03
2022-08-23T01:21:30.493Z,80.74
2022-08-23T01:22:25.652Z,80.89
2022-08-23T01:23:21.096Z,80.97
2022-08-23T01:24:19.225Z,80.99
2022-08-23T01:25:13.854Z,80.96
2022-08-23T01:26:08.065Z,81.07
2022-08-23T01:27:03.065Z,81.09
2022-08-23T01:27:58.162Z,81.13
2022-08-23T01:28:53.107Z,81.06
2022-08-23T01:29:48.135Z,80.77
2022-08-23T01:30:43.185Z,80.38
2022-08-23T01:31:38.220Z,80.16
2022-08-23T01:32:33.265Z,80.05
2022-08-23T01:33:33.964Z,80.21
2022-08-23T01:34:29.284Z,80.34
2022-08-23T01:36:20.217Z,80.69
2022-08-23T01:37:15.503Z,80.80
2022-08-23T01:38:10.665Z,80.74
2022-08-23T01:39:07.250Z,80.72
2022-08-23T01:40:02.470Z,80.70
2022-08-23T01:40:58.265Z,80.74
2022-08-23T01:41:53.411Z,80.71
2022-08-23T01:42:48.594Z,80.58
2022-08-23T01:43:44.446Z,80.68
2022-08-23T01:44:39.742Z,80.79
2022-08-23T01:45:35.439Z,80.77
2022-08-23T01:46:30.712Z,80.87
2022-08-23T01:47:25.894Z,81.06
2022-08-23T01:48:21.748Z,81.20
2022-08-23T01:49:16.936Z,81.01
2022-08-23T01:50:12.119Z,81.05
2022-08-23T01:51:08.383Z,80.89
2022-08-23T01:52:03.678Z,80.67
2022-08-23T01:52:59.800Z,80.49
2022-08-23T01:53:54.785Z,80.46
2022-08-23T01:54:50.115Z,80.40
2022-08-23T01:55:45.136Z,80.50
2022-08-23T01:56:40.157Z,80.54
2022-08-23T01:57:40.125Z,80.57
2022-08-23T01:58:35.148Z,80.61
2022-08-23T01:59:30.471Z,80.85
2022-08-23T02:00:26.214Z,80.78
2022-08-23T02:01:21.565Z,80.99
2022-08-23T02:02:16.867Z,80.94
2022-08-23T02:03:12.049Z,80.93
2022-08-23T02:04:08.562Z,80.95
2022-08-23T02:05:03.834Z,81.12
2022-08-23T02:05:59.028Z,81.29
2022-08-23T02:06:54.870Z,81.36
2022-08-23T02:07:50.067Z,81.00
2022-08-23T02:08:45.185Z,80.84
2022-08-23T02:09:41.600Z,80.50
2022-08-23T02:10:36.951Z,80.32
2022-08-23T02:11:32.800Z,80.15
2022-08-23T02:12:27.959Z,79.89
2022-08-23T02:13:23.159Z,79.80
2022-08-23T02:14:18.907Z,79.78
2022-08-23T02:15:14.192Z,79.86
2022-08-23T02:16:10.159Z,80.14
2022-08-23T02:17:05.280Z,80.27
2022-08-23T02:18:01.288Z,80.26
2022-08-23T02:18:56.405Z,80.38
2022-08-23T02:19:51.539Z,80.52
2022-08-23T02:20:46.821Z,80.40
2022-08-23T02:21:41.967Z,80.41
2022-08-23T02:22:36.986Z,80.60
2022-08-23T02:23:32.074Z,80.66
2022-08-23T02:24:27.104Z,80.85
2022-08-23T02:25:22.106Z,81.08
2022-08-23T02:26:17.150Z,81.54
2022-08-23T02:27:12.187Z,82.08
2022-08-23T02:28:07.245Z,82.59
2022-08-23T02:29:02.261Z,82.77
2022-08-23T02:29:57.295Z,83.01
2022-08-23T02:30:52.344Z,82.99
2022-08-23T02:31:47.381Z,83.08
2022-08-23T02:32:42.395Z,82.70
2022-08-23T02:33:37.425Z,82.47
2022-08-23T02:34:32.435Z,82.35
2022-08-23T02:35:27.644Z,82.30
2022-08-23T02:36:22.679Z,82.19
2022-08-23T02:37:17.797Z,82.30
2022-08-23T02:38:12.845Z,82.28
2022-08-23T02:39:08.667Z,82.15
2022-08-23T02:40:03.883Z,81.91
2022-08-23T02:41:00.731Z,81.91
2022-08-23T02:41:55.653Z,81.99
2022-08-23T02:42:50.790Z,82.13
2022-08-23T02:43:46.091Z,82.05
2022-08-23T02:44:41.260Z,81.97
2022-08-23T02:45:36.550Z,82.14
2022-08-23T02:46:31.821Z,82.17
2022-08-23T02:47:27.269Z,81.90
2022-08-23T02:48:22.337Z,81.87
2022-08-23T02:49:17.467Z,81.93
2022-08-23T02:50:12.627Z,81.78
2022-08-23T02:51:07.898Z,81.60
2022-08-23T02:52:03.072Z,81.54
2022-08-23T02:52:58.241Z,81.66
2022-08-23T02:53:53.524Z,81.87
2022-08-23T02:54:48.971Z,81.94
2022-08-23T02:55:44.136Z,82.02
2022-08-23T02:56:39.404Z,82.18
2022-08-23T02:57:34.720Z,82.32
2022-08-23T02:58:29.896Z,82.48
2022-08-23T02:59:25.180Z,82.32
2022-08-23T03:00:20.345Z,82.34
2022-08-23T03:01:15.626Z,82.09
2022-08-23T03:02:10.855Z,82.33
2022-08-23T03:03:06.012Z,82.16
2022-08-23T03:04:01.288Z,82.07
2022-08-23T03:04:56.464Z,82.15
2022-08-23T03:05:51.725Z,82.15
2022-08-23T03:06:47.328Z,81.99
2022-08-23T03:07:42.212Z,82.11
2022-08-23T03:08:37.364Z,82.29
2022-08-23T03:09:32.526Z,82.31
2022-08-23T03:10:27.681Z,82.39
2022-08-23T03:11:23.012Z,82.56
2022-08-23T03:12:18.069Z,82.65
2022-08-23T03:13:13.199Z,82.61
2022-08-23T03:14:08.364Z,82.50
2022-08-23T03:15:03.662Z,82.39
2022-08-23T03:15:58.854Z,82.35
2022-08-23T03:16:54.060Z,82.43
2022-08-23T03:17:49.291Z,82.52
2022-08-23T03:18:44.471Z,82.51
2022-08-23T03:19:39.620Z,82.43
2022-08-23T03:20:34.911Z,82.68
2022-08-23T03:21:30.091Z,82.83
2022-08-23T03:22:25.618Z,83.21
2022-08-23T03:23:20.768Z,83.41
2022-08-23T03:24:15.951Z,83.31
2022-08-23T03:25:11.083Z,83.22
2022-08-23T03:26:06.251Z,83.24
2022-08-23T03:27:01.245Z,83.32
2022-08-23T03:27:56.457Z,83.47
2022-08-23T03:28:51.476Z,83.52
2022-08-23T03:29:46.487Z,83.40
2022-08-23T03:30:41.550Z,83.28
2022-08-23T03:31:36.567Z,83.35
2022-08-23T03:32:31.912Z,83.06
2022-08-23T03:33:27.636Z,82.43
2022-08-23T03:34:22.635Z,81.80
2022-08-23T03:35:17.647Z,81.62
2022-08-23T03:36:12.664Z,81.68
2022-08-23T03:37:07.713Z,81.57
2022-08-23T03:38:02.961Z,81.75
2022-08-23T03:38:57.783Z,82.15
2022-08-23T03:39:52.826Z,82.42
2022-08-23T03:40:47.863Z,82.52
2022-08-23T03:41:42.861Z,82.62
2022-08-23T03:42:38.033Z,82.74
2022-08-23T03:43:33.245Z,82.95
2022-08-23T03:44:29.089Z,83.13
2022-08-23T03:45:24.258Z,83.31
2022-08-23T03:46:19.543Z,83.29
2022-08-23T03:47:15.463Z,83.08
2022-08-23T03:48:10.623Z,83.10
2022-08-23T03:49:06.045Z,82.68
2022-08-23T03:50:02.174Z,82.56
2022-08-23T03:50:57.480Z,82.59
2022-08-23T03:51:53.372Z,82.62
2022-08-23T03:52:48.507Z,82.46
2022-08-23T03:53:43.955Z,82.59
2022-08-23T03:54:39.701Z,82.68
2022-08-23T03:55:35.008Z,82.62
2022-08-23T03:56:31.781Z,82.79
2022-08-23T03:57:26.041Z,82.86
2022-08-23T03:58:21.357Z,82.95
2022-08-23T03:59:17.782Z,83.24
2022-08-23T04:00:13.066Z,83.26
2022-08-23T04:01:08.225Z,83.18
2022-08-23T04:02:04.787Z,83.37
2022-08-23T04:03:00.000Z,83.52
2022-08-23T04:03:55.853Z,83.55
2022-08-23T04:04:51.117Z,83.66
2022-08-23T04:05:46.347Z,83.61
2022-08-23T04:06:42.145Z,83.76
2022-08-23T04:07:37.443Z,83.86
2022-08-23T04:08:33.806Z,83.70
2022-08-23T04:09:28.456Z,83.71
2022-08-23T04:10:23.706Z,83.75
2022-08-23T04:11:20.155Z,83.55
2022-08-23T04:12:17.451Z,83.15
2022-08-23T04:13:10.608Z,82.95
2022-08-23T04:14:05.666Z,82.92
2022-08-23T04:15:02.454Z,82.80
2022-08-23T04:15:55.988Z,82.47
2022-08-23T04:16:50.901Z,82.33
2022-08-23T04:17:46.069Z,82.37
2022-08-23T04:18:41.178Z,82.34
2022-08-23T04:19:36.285Z,82.29
2022-08-23T04:20:31.356Z,82.10
2022-08-23T04:21:26.398Z,82.00
2022-08-23T04:22:21.561Z,82.04
2022-08-23T04:23:16.600Z,82.29
2022-08-23T04:24:13.202Z,82.40
2022-08-23T04:25:33.111Z,82.57
2022-08-23T04:26:04.411Z,82.72
2022-08-23T04:26:59.464Z,83.05
2022-08-23T04:27:54.802Z,83.21
2022-08-23T04:28:50.135Z,83.57
2022-08-23T04:29:46.425Z,83.74
2022-08-23T04:30:41.776Z,83.50
2022-08-23T04:31:37.525Z,83.49
2022-08-23T04:32:32.857Z,83.48
2022-08-23T04:33:28.165Z,83.52
2022-08-23T04:34:24.990Z,83.51
2022-08-23T04:35:20.327Z,83.28
2022-08-23T04:36:16.081Z,83.22
2022-08-23T04:37:11.380Z,83.21
2022-08-23T04:38:24.029Z,83.17
2022-08-23T04:39:03.494Z,83.30
2022-08-23T04:39:57.988Z,83.23
2022-08-23T04:40:53.303Z,83.21
2022-08-23T04:41:49.762Z,83.10
2022-08-23T04:42:45.089Z,82.96
2022-08-23T04:43:40.831Z,82.98
2022-08-23T04:44:36.182Z,83.10
2022-08-23T04:45:31.540Z,82.99
2022-08-23T04:46:26.574Z,83.11
2022-08-23T04:47:21.645Z,83.10
2022-08-23T04:48:16.723Z,82.78
2022-08-23T04:49:11.796Z,82.71
2022-08-23T04:50:06.875Z,82.50
2022-08-23T04:51:01.971Z,82.50
2022-08-23T04:51:57.041Z,82.39
2022-08-23T04:52:52.259Z,82.55
2022-08-23T04:53:47.252Z,82.76
2022-08-23T04:54:42.360Z,82.98
2022-08-23T04:55:37.368Z,83.00
2022-08-23T04:56:32.496Z,82.89
2022-08-23T04:57:27.584Z,82.89
2022-08-23T04:58:22.718Z,82.96
2022-08-23T04:59:21.440Z,82.92
2022-08-23T05:00:16.545Z,83.03
2022-08-23T05:01:11.600Z,82.92
2022-08-23T05:02:06.557Z,82.94
2022-08-23T05:03:01.664Z,83.05
2022-08-23T05:03:56.755Z,82.77
2022-08-23T05:04:51.767Z,82.53
2022-08-23T05:05:48.215Z,82.59
2022-08-23T05:06:43.614Z,82.55
2022-08-23T05:07:42.160Z,82.48
2022-08-23T05:08:34.752Z,82.42
2022-08-23T05:09:30.154Z,82.61
2022-08-23T05:10:25.920Z,82.66
2022-08-23T05:11:21.327Z,82.65
2022-08-23T05:12:16.714Z,82.72
2022-08-23T05:13:13.509Z,83.03
2022-08-23T05:14:07.939Z,83.27
2022-08-23T05:15:03.300Z,83.38
2022-08-23T05:15:59.683Z,83.49
2022-08-23T05:16:55.084Z,83.62
2022-08-23T05:17:50.864Z,83.62
2022-08-23T05:18:46.279Z,83.62
2022-08-23T05:19:44.306Z,83.38
2022-08-23T05:20:38.483Z,83.41
2022-08-23T05:21:32.898Z,83.54
2022-08-23T05:22:28.847Z,83.29
2022-08-23T05:23:31.882Z,82.83
2022-08-23T05:24:20.549Z,82.44
2022-08-23T05:25:15.427Z,82.24
2022-08-23T05:26:10.839Z,82.14
2022-08-23T05:27:08.651Z,82.39
2022-08-23T05:28:02.666Z,82.34
2022-08-23T05:28:58.072Z,82.28
2022-08-23T05:29:53.889Z,82.35
2022-08-23T05:30:56.386Z,82.26
2022-08-23T05:31:46.314Z,82.39
2022-08-23T05:32:40.665Z,82.56
2022-08-23T05:33:36.384Z,82.74
2022-08-23T05:34:31.826Z,82.70
2022-08-23T05:35:27.424Z,82.70
2022-08-23T05:36:23.008Z,82.77
2022-08-23T05:37:18.423Z,82.66
2022-08-23T05:38:17.721Z,82.62
2022-08-23T05:39:10.592Z,82.44
2022-08-23T05:40:06.458Z,82.36
2022-08-23T05:41:00.904Z,82.16
2022-08-23T05:41:56.756Z,81.91
2022-08-23T05:42:52.061Z,82.02
2022-08-23T05:43:47.478Z,81.80
2022-08-23T05:44:43.404Z,81.66
2022-08-23T05:45:38.704Z,81.55
2022-08-23T05:46:34.101Z,81.52
2022-08-23T05:47:33.793Z,81.53
2022-08-23T05:48:26.149Z,81.44
2022-08-23T05:49:22.048Z,81.30
2022-08-23T05:50:17.498Z,81.01
2022-08-23T05:51:12.928Z,80.94
2022-08-23T05:52:08.638Z,80.80
2022-08-23T05:53:08.008Z,80.34
2022-08-23T05:54:03.476Z,80.61
2022-08-23T05:54:58.910Z,80.72
2022-08-23T05:55:54.779Z,80.69
2022-08-23T05:56:50.181Z,80.64
2022-08-23T05:57:45.586Z,80.62
2022-08-23T05:58:41.877Z,80.68
2022-08-23T05:59:37.381Z,80.44
2022-08-23T06:00:37.928Z,80.41
2022-08-23T06:01:29.771Z,80.24
2022-08-23T06:02:24.133Z,80.25
2022-08-23T06:03:20.674Z,80.22
2022-08-23T06:04:16.110Z,80.18
2022-08-23T06:05:11.975Z,80.05
2022-08-23T06:06:07.308Z,79.89
2022-08-23T06:07:02.768Z,79.83
2022-08-23T06:07:58.566Z,79.77
2022-08-23T06:08:53.906Z,79.62
2022-08-23T06:09:49.383Z,79.52
2022-08-23T06:10:44.840Z,79.39
2022-08-23T06:11:40.285Z,79.14
2022-08-23T06:12:39.644Z,78.80
2022-08-23T06:13:35.087Z,78.48
2022-08-23T06:14:30.774Z,78.22
2022-08-23T06:15:26.286Z,77.93
2022-08-23T06:16:22.561Z,77.86
2022-08-23T06:17:17.994Z,77.52
2022-08-23T06:18:13.408Z,77.23
2022-08-23T06:19:09.169Z,76.79
2022-08-23T06:20:04.633Z,76.39
2022-08-23T06:21:00.069Z,76.17
2022-08-23T06:21:55.512Z,75.83
2022-08-23T06:22:50.532Z,75.75
2022-08-23T06:23:45.570Z,75.17
2022-08-23T06:24:40.802Z,74.87
2022-08-23T06:25:35.828Z,74.76
2022-08-23T06:26:30.919Z,74.47
2022-08-23T06:27:28.930Z,74.46
2022-08-23T06:28:25.858Z,74.16
2022-08-23T06:29:19.314Z,74.15
2022-08-23T06:30:14.219Z,74.21
2022-08-23T06:31:09.292Z,73.80
2022-08-23T06:32:04.255Z,73.54
2022-08-23T06:32:59.265Z,72.92
2022-08-23T06:33:54.413Z,72.74
2022-08-23T06:34:49.413Z,72.29
2022-08-23T06:35:44.435Z,72.11
2022-08-23T06:36:39.632Z,71.38
2022-08-23T06:37:35.061Z,70.93
2022-08-23T06:38:31.056Z,70.34
2022-08-23T06:39:26.526Z,69.80
2022-08-23T06:40:21.983Z,68.82
2022-08-23T06:41:17.720Z,68.50
2022-08-23T06:42:37.553Z,68.62
2022-08-23T06:43:10.018Z,68.43
2022-08-23T06:44:04.373Z,68.24
2022-08-23T06:44:59.802Z,67.51
2022-08-23T06:45:58.387Z,66.15
2022-08-23T06:46:51.691Z,66.50
2022-08-23T06:47:47.101Z,66.18
2022-08-23T06:48:43.401Z,65.57
2022-08-23T06:49:38.852Z,64.55
2022-08-23T06:50:34.684Z,64.09
2022-08-23T06:51:30.150Z,63.74
2022-08-23T06:52:25.720Z,64.00
2022-08-23T06:53:21.438Z,64.75
2022-08-23T06:54:16.974Z,65.04
2022-08-23T06:55:13.885Z,64.34
2022-08-23T06:56:08.219Z,64.56
2022-08-23T06:57:03.643Z,64.61
2022-08-23T06:58:00.412Z,64.66
2022-08-23T06:58:55.621Z,64.28
2022-08-23T06:59:51.072Z,64.26
2022-08-23T07:00:47.380Z,64.30
2022-08-23T07:01:46.076Z,64.20
2022-08-23T07:02:38.638Z,64.00
2022-08-23T07:03:36.526Z,63.62
2022-08-23T07:04:29.479Z,63.36
2022-08-23T07:05:24.386Z,63.42
2022-08-23T07:06:19.405Z,63.00
2022-08-23T07:07:18.911Z,62.59
2022-08-23T07:08:14.446Z,61.99
2022-08-23T07:09:09.781Z,62.26
2022-08-23T07:10:05.495Z,62.16
2022-08-23T07:11:00.963Z,62.37
2022-08-23T07:11:56.554Z,62.42
2022-08-23T07:12:52.942Z,62.84
2022-08-23T07:13:48.509Z,62.38
2022-08-23T07:14:44.084Z,61.44
2022-08-23T07:15:39.478Z,60.62
2022-08-23T07:16:35.058Z,59.77
2022-08-23T07:17:30.829Z,59.93
2022-08-23T07:18:26.313Z,60.12
2022-08-23T07:19:22.013Z,58.97
2022-08-23T07:20:18.411Z,59.86
2022-08-23T07:21:13.138Z,59.72
2022-08-23T07:22:08.650Z,59.67
2022-08-23T07:23:04.440Z,59.67
2022-08-23T07:23:59.888Z,59.69
2022-08-23T07:24:55.399Z,58.97
2022-08-23T07:25:51.198Z,58.38
2022-08-23T07:26:46.627Z,57.92
2022-08-23T07:27:42.028Z,57.30
2022-08-23T07:28:38.289Z,56.88
2022-08-23T07:29:33.689Z,57.27
2022-08-23T07:30:29.211Z,57.72
2022-08-23T07:31:24.391Z,58.39
2022-08-23T07:32:19.413Z,58.42
2022-08-23T07:33:14.533Z,58.01
2022-08-23T07:34:09.613Z,57.83
2022-08-23T07:35:04.586Z,57.81
2022-08-23T07:35:59.616Z,58.19
2022-08-23T07:36:54.626Z,58.04
2022-08-23T07:37:49.684Z,58.53
2022-08-23T07:38:45.431Z,58.91
2022-08-23T07:39:39.889Z,58.45
2022-08-23T07:40:38.629Z,58.21
2022-08-23T07:41:31.129Z,57.85
2022-08-23T07:42:25.904Z,57.86
2022-08-23T07:43:21.753Z,58.24
2022-08-23T07:44:18.194Z,58.84
2022-08-23T07:45:13.040Z,59.51
2022-08-23T07:46:08.252Z,59.93
2022-08-23T07:47:03.566Z,59.80
2022-08-23T07:47:58.645Z,59.99
2022-08-23T07:48:54.790Z,59.08
2022-08-23T07:49:48.723Z,58.35
2022-08-23T07:50:54.799Z,57.93
2022-08-23T07:51:39.863Z,57.10
2022-08-23T07:52:33.894Z,56.35
2022-08-23T07:53:37.359Z,56.66
2022-08-23T07:54:25.864Z,56.35
2022-08-23T07:55:22.180Z,55.51
2022-08-23T07:56:17.569Z,54.99
2022-08-23T07:57:13.101Z,55.29
2022-08-23T07:58:08.674Z,56.04
2022-08-23T07:59:03.641Z,56.54
2022-08-23T07:59:58.650Z,56.77
2022-08-23T08:00:53.749Z,57.33
2022-08-23T08:01:48.789Z,57.90
2022-08-23T08:02:43.805Z,57.98
2022-08-23T08:03:38.858Z,56.40
2022-08-23T08:04:33.850Z,56.43
2022-08-23T08:05:28.983Z,56.16
2022-08-23T08:06:24.089Z,56.12
2022-08-23T08:07:20.949Z,55.76
2022-08-23T08:08:14.227Z,55.00
2022-08-23T08:09:09.238Z,54.51
2022-08-23T08:10:04.268Z,54.79
2022-08-23T08:10:59.258Z,54.39
2022-08-23T08:11:54.369Z,54.34
2022-08-23T08:12:49.379Z,54.26
2022-08-23T08:13:44.468Z,53.87
2022-08-23T08:14:39.476Z,53.85
2022-08-23T08:15:34.462Z,53.40
2022-08-23T08:16:29.516Z,52.69
2022-08-23T08:17:27.496Z,52.33
2022-08-23T08:18:19.610Z,52.60
2022-08-23T08:19:14.627Z,52.92
2022-08-23T08:20:13.181Z,52.75
2022-08-23T08:21:08.709Z,52.86
2022-08-23T08:22:04.367Z,51.89
2022-08-23T08:23:00.561Z,51.43
2022-08-23T08:23:55.213Z,51.49
2022-08-23T08:24:51.017Z,50.47
2022-08-23T08:25:46.015Z,50.96
2022-08-23T08:26:41.129Z,51.37
2022-08-23T08:27:36.249Z,51.21
2022-08-23T08:28:31.445Z,51.56
2022-08-23T08:29:26.444Z,52.31
2022-08-23T08:30:21.477Z,52.76
2022-08-23T08:31:16.620Z,53.10
2022-08-23T08:32:13.744Z,53.13
2022-08-23T08:33:06.684Z,52.56
2022-08-23T08:34:01.821Z,52.02
2022-08-23T08:34:56.835Z,51.42
2022-08-23T08:35:59.817Z,50.55
2022-08-23T08:36:47.931Z,50.35
2022-08-23T08:37:42.050Z,49.82
2022-08-23T08:38:38.920Z,48.76
2022-08-23T08:39:33.737Z,49.67
2022-08-23T08:40:27.298Z,50.99
2022-08-23T08:41:22.814Z,51.24
2022-08-23T08:42:18.250Z,51.41
2022-08-23T08:43:16.894Z,51.31
2022-08-23T08:44:15.875Z,51.44
2022-08-23T08:45:07.659Z,51.22
2022-08-23T08:46:03.052Z,51.21
2022-08-23T08:46:58.564Z,51.49
2022-08-23T08:47:53.989Z,50.45
2022-08-23T08:48:49.522Z,49.33
2022-08-23T08:49:45.041Z,49.49
2022-08-23T08:50:40.622Z,49.22
2022-08-23T08:51:36.028Z,48.25
2022-08-23T08:52:32.637Z,47.70
2022-08-23T08:53:28.182Z,47.67
2022-08-23T08:54:23.727Z,47.83
2022-08-23T08:55:19.269Z,47.98
2022-08-23T08:56:16.509Z,47.68
2022-08-23T08:57:10.138Z,48.10
2022-08-23T08:58:05.280Z,48.00
2022-08-23T08:59:00.286Z,48.14
2022-08-23T08:59:55.381Z,48.81
2022-08-23T09:00:55.196Z,49.19
2022-08-23T09:01:46.443Z,49.46
2022-08-23T09:02:40.636Z,48.99
2022-08-23T09:03:35.584Z,49.14
2022-08-23T09:04:30.589Z,48.97
2022-08-23T09:05:25.568Z,48.73
2022-08-23T09:06:20.678Z,49.49
2022-08-23T09:07:15.727Z,49.15
2022-08-23T09:08:11.122Z,48.79
2022-08-23T09:09:06.504Z,48.67
2022-08-23T09:10:02.045Z,48.53
2022-08-23T09:10:58.571Z,48.12
2022-08-23T09:11:53.037Z,48.42
2022-08-23T09:12:48.172Z,48.08
2022-08-23T09:13:46.134Z,47.18
2022-08-23T09:14:38.158Z,47.30
2022-08-23T09:15:35.362Z,47.66
2022-08-23T09:16:30.434Z,47.80
2022-08-23T09:17:25.464Z,48.32
2022-08-23T09:18:20.482Z,48.35
2022-08-23T09:19:15.590Z,47.70
2022-08-23T09:20:10.619Z,47.28
2022-08-23T09:21:05.614Z,47.37
2022-08-23T09:22:00.738Z,47.65
2022-08-23T09:22:56.873Z,47.54
2022-08-23T09:24:00.258Z,46.80
2022-08-23T09:24:48.822Z,47.03
2022-08-23T09:25:43.376Z,47.45
2022-08-23T09:26:38.630Z,47.65
2022-08-23T09:27:34.206Z,47.90
2022-08-23T09:28:29.657Z,47.29
2022-08-23T09:29:25.146Z,46.53
2022-08-23T09:30:20.532Z,45.12
2022-08-23T09:31:15.991Z,44.85
2022-08-23T09:32:14.293Z,46.01
2022-08-23T09:33:06.034Z,46.19
2022-08-23T09:34:01.040Z,46.53
2022-08-23T09:34:56.032Z,46.56
2022-08-23T09:35:51.209Z,46.15
2022-08-23T09:36:46.180Z,45.71
2022-08-23T09:37:41.334Z,45.45
2022-08-23T09:38:42.873Z,44.83
2022-08-23T09:39:33.630Z,45.36
2022-08-23T09:40:28.646Z,45.58
2022-08-23T09:41:23.792Z,45.54
2022-08-23T09:42:19.732Z,44.91
2022-08-23T09:43:15.290Z,43.35
2022-08-23T09:44:10.692Z,43.75
2022-08-23T09:45:06.246Z,42.95
2022-08-23T09:46:01.678Z,42.29
2022-08-23T09:46:57.069Z,41.53
2022-08-23T09:47:52.668Z,41.86
2022-08-23T09:48:48.190Z,42.49
2022-08-23T09:49:43.860Z,43.29
2022-08-23T09:50:39.388Z,44.04
2022-08-23T09:51:35.128Z,44.64
2022-08-23T09:52:30.238Z,44.95
2022-08-23T09:53:25.662Z,45.06
2022-08-23T09:54:21.058Z,45.03
2022-08-23T09:55:16.194Z,44.91
2022-08-23T09:56:11.190Z,43.84
2022-08-23T09:57:06.298Z,43.90
2022-08-23T09:58:01.353Z,43.89
2022-08-23T09:58:56.448Z,44.04
2022-08-23T09:59:51.663Z,43.49
2022-08-23T10:00:46.663Z,43.50
2022-08-23T10:01:43.418Z,43.51
2022-08-23T10:02:38.567Z,42.91
2022-08-23T10:03:33.696Z,41.74
2022-08-23T10:04:28.765Z,41.54
2022-08-23T10:05:23.789Z,41.60
2022-08-23T10:06:18.864Z,40.64
2022-08-23T10:07:14.085Z,40.11
2022-08-23T10:08:10.891Z,40.49
2022-08-23T10:09:04.288Z,39.16
2022-08-23T10:09:59.739Z,38.76
2022-08-23T10:10:55.194Z,38.53
2022-08-23T10:11:50.686Z,38.59
2022-08-23T10:12:46.145Z,38.39
2022-08-23T10:13:41.597Z,39.04
2022-08-23T10:14:36.650Z,38.92
2022-08-23T10:15:36.077Z,38.54
2022-08-23T10:16:26.819Z,37.21
2022-08-23T10:17:23.057Z,37.00
2022-08-23T10:18:18.105Z,37.06
2022-08-23T10:19:13.185Z,37.11
2022-08-23T10:20:08.231Z,37.39
2022-08-23T10:21:03.245Z,37.35
2022-08-23T10:21:58.346Z,37.22
2022-08-23T10:22:53.784Z,37.36
2022-08-23T10:23:49.363Z,37.22
2022-08-23T10:24:44.667Z,38.14
2022-08-23T10:25:40.123Z,38.29
2022-08-23T10:26:35.607Z,38.17
2022-08-23T10:27:31.202Z,37.40
2022-08-23T10:28:26.667Z,37.76
2022-08-23T10:29:21.732Z,37.92
2022-08-23T10:30:16.767Z,37.52
2022-08-23T10:31:11.863Z,36.56
2022-08-23T10:32:07.054Z,36.41
2022-08-23T10:33:01.985Z,36.67
2022-08-23T10:33:57.009Z,36.79
2022-08-23T10:34:52.055Z,36.68
2022-08-23T10:35:47.133Z,36.92
2022-08-23T10:36:42.172Z,36.20
2022-08-23T10:37:37.345Z,35.54
2022-08-23T10:38:32.238Z,35.48
2022-08-23T10:39:27.282Z,36.19
2022-08-23T10:40:22.658Z,34.49
2022-08-23T10:41:18.084Z,33.93
2022-08-23T10:42:13.551Z,34.15
2022-08-23T10:43:09.013Z,34.71
2022-08-23T10:44:04.052Z,35.32
2022-08-23T10:44:59.101Z,35.96
2022-08-23T10:45:58.307Z,36.76
2022-08-23T10:46:50.389Z,37.06
2022-08-23T10:47:44.342Z,36.24
2022-08-23T10:48:39.407Z,36.05
2022-08-23T10:49:34.632Z,35.67
2022-08-23T10:50:29.649Z,34.84
2022-08-23T10:51:31.838Z,35.01
2022-08-23T10:52:20.913Z,33.85
2022-08-23T10:53:14.757Z,32.87
2022-08-23T10:54:09.780Z,33.37
2022-08-23T10:55:04.830Z,33.88
2022-08-23T10:55:59.893Z,34.10
2022-08-23T10:56:54.919Z,34.06
2022-08-23T10:57:50.020Z,34.39
2022-08-23T10:58:45.076Z,35.18
2022-08-23T10:59:40.120Z,35.97
2022-08-23T11:00:35.311Z,35.97
2022-08-23T11:01:30.837Z,35.21
2022-08-23T11:02:25.943Z,35.07
2022-08-23T11:03:23.474Z,35.11
2022-08-23T11:04:17.052Z,35.75
2022-08-23T11:05:11.172Z,35.26
2022-08-23T11:06:06.209Z,35.42
2022-08-23T11:07:01.231Z,34.87
2022-08-23T11:07:56.369Z,35.37
2022-08-23T11:08:51.287Z,35.16
2022-08-23T11:09:46.347Z,34.89
2022-08-23T11:10:41.396Z,35.23
2022-08-23T11:11:37.459Z,35.08
2022-08-23T11:12:31.807Z,35.08
2022-08-23T11:13:27.255Z,35.27
2022-08-23T11:14:22.609Z,34.92
2022-08-23T11:15:18.070Z,35.60
2022-08-23T11:16:13.610Z,35.87
2022-08-23T11:17:08.536Z,35.06
2022-08-23T11:18:03.710Z,34.99
2022-08-23T11:18:58.868Z,34.92
2022-08-23T11:19:53.896Z,35.35
2022-08-23T11:20:48.943Z,35.29
2022-08-23T11:21:44.007Z,35.38
2022-08-23T11:22:39.065Z,35.51
2022-08-23T11:23:34.118Z,35.66
2022-08-23T11:24:29.315Z,35.36
2022-08-23T11:25:24.223Z,35.50
2022-08-23T11:26:20.786Z,35.85
2022-08-23T11:27:15.846Z,35.79
2022-08-23T11:28:10.891Z,35.09
2022-08-23T11:29:05.965Z,34.18
2022-08-23T11:30:02.119Z,34.00
2022-08-23T11:30:57.598Z,33.87
2022-08-23T11:31:52.859Z,33.60
2022-08-23T11:32:48.337Z,33.35
2022-08-23T11:33:43.926Z,34.26
2022-08-23T11:34:39.390Z,34.31
2022-08-23T11:35:34.892Z,35.21
2022-08-23T11:36:30.202Z,34.98
2022-08-23T11:37:25.643Z,33.78
2022-08-23T11:38:22.675Z,33.45
2022-08-23T11:39:20.531Z,33.75
2022-08-23T11:40:17.986Z,34.11
2022-08-23T11:41:08.703Z,34.39
2022-08-23T11:42:02.931Z,35.07
2022-08-23T11:42:57.952Z,35.28
2022-08-23T11:43:52.981Z,35.07
2022-08-23T11:44:48.159Z,34.83
2022-08-23T11:45:43.211Z,34.98
2022-08-23T11:46:38.259Z,34.99
2022-08-23T11:47:33.289Z,35.24
2022-08-23T11:48:28.327Z,34.88
2022-08-23T11:49:26.063Z,34.64
2022-08-23T11:50:21.131Z,34.38
2022-08-23T11:51:16.211Z,34.23
2022-08-23T11:52:11.270Z,34.60
2022-08-23T11:53:06.285Z,35.20
2022-08-23T11:54:01.323Z,34.69